Flight Track Log - Related Links

Times and Time Zones

All times are in EDT time to prevent confusion due to time zone crossing. See the SWA1733 flight status page for this flight to view local times or setup timezone preferences in your user account.

Time Position Orientation Groundspeed Altitude Reporting Facility
EDT Latitude Longitude Course Direction KTS MPH feet Rate Location/Type
Tue 07:50:36 AM 29.5447 -98.4517 40° Northeast 148 170 1,800  Level Houston Center
Tue 07:51:06 AM 29.5619 -98.4353 40° Northeast 171 197 2,500 2,308 Climbing Houston Center
Tue 07:51:41 AM 29.5894 -98.4108 38° Northeast 193 222 4,300 3,125 Climbing Houston Center
Tue 07:52:42 AM 29.6397 -98.4428 331° Northwest 249 287 7,500 3,492 Climbing Houston Center
Tue 07:53:43 AM 29.6933 -98.5200 309° West 287 330 11,400 3,854 Climbing Houston Center
Tue 07:54:45 AM 29.7517 -98.6033 309° West 334 384 15,400 3,756 Climbing Houston Center
Tue 07:55:46 AM 29.7950 -98.7039 296° West 356 410 19,100 3,541 Climbing Houston Center
Tue 07:56:47 AM 29.8317 -98.8269 289° West 380 437 22,600 3,098 Climbing Houston Center
Tue 07:57:48 AM 29.8681 -98.9475 289° West 400 460 25,400 2,585 Climbing Houston Center
Tue 07:58:50 AM 29.9056 -99.0725 289° West 415 478 27,900 2,195 Climbing Houston Center
Tue 07:59:51 AM 29.9397 -99.1847 289° West 427 491 29,900 2,164 Climbing Houston Center
Tue 08:00:52 AM 29.9786 -99.3167 289° West 435 501 32,300 2,459 Climbing Houston Center
Tue 08:01:53 AM 30.0247 -99.4728 289° West 433 498 34,900 2,361 Climbing Houston Center
Tue 08:02:54 AM 30.0628 -99.6025 289° West 429 494 37,100 1,854 Climbing Houston Center
Tue 08:03:56 AM 30.1000 -99.7294 289° West 421 484 38,700 1,415 Climbing Houston Center
Tue 08:04:57 AM 30.1381 -99.8547 289° West 417 480 40,000 639 Climbing Houston Center
Tue 08:05:58 AM 30.1736 -99.9794 288° West 413 475 40,000  Level Houston Center
Tue 08:07:00 AM 30.2092 -100.1017 289° West 405 466 40,000  Level Houston Center
Tue 08:08:01 AM 30.2447 -100.2258 288° West 413 475 40,000  Level Houston Center
Tue 08:09:02 AM 30.2869 -100.3733 288° West 409 471 40,000  Level Houston Center
Tue 08:10:04 AM 30.3219 -100.4981 288° West 410 472 40,000  Level Houston Center
Tue 08:11:05 AM 30.3578 -100.6244 288° West 415 478 40,000  Level Houston Center
Tue 08:12:06 AM 30.3947 -100.7519 289° West 419 482 40,000  Level Houston Center
Tue 08:13:08 AM 30.4289 -100.8822 287° West 421 484 40,000  Level Houston Center
Tue 08:14:09 AM 30.4647 -101.0106 288° West 422 486 40,000  Level Houston Center
Tue 08:15:10 AM 30.5011 -101.1411 288° West 425 489 40,000  Level Houston Center
Tue 08:16:12 AM 30.5442 -101.2961 288° West 423 487 40,000  Level Houston Center
Tue 08:17:13 AM 30.5800 -101.4264 288° West 424 488 40,000  Level Houston Center
Tue 08:18:15 AM 30.6164 -101.5569 288° West 425 489 40,000  Level Houston Center
Tue 08:19:02 AM 30.6450 -101.6500 290° West 425 489 40,000  Level Albuquerque Center
Tue 08:20:02 AM 30.6806 -101.7822 287° West 426 490 40,000  Level Albuquerque Center
Tue 08:21:03 AM 30.7161 -101.9131 288° West 427 491 40,000  Level Albuquerque Center
Tue 08:22:03 AM 30.7506 -102.0444 287° West 425 489 40,000  Level Albuquerque Center
Tue 08:23:04 AM 30.7858 -102.1753 287° West 425 489 40,000  Level Albuquerque Center
Tue 08:24:04 AM 30.8219 -102.3069 288° West 424 488 40,000  Level Albuquerque Center
Tue 08:25:05 AM 30.8567 -102.4372 287° West 422 486 40,000  Level Albuquerque Center
Tue 08:26:05 AM 30.8917 -102.5681 287° West 421 484 40,000  Level Albuquerque Center
Tue 08:27:06 AM 30.9258 -102.6992 287° West 421 484 40,000  Level Albuquerque Center
Tue 08:28:06 AM 30.9608 -102.8311 287° West 423 487 40,000  Level Albuquerque Center
Tue 08:29:07 AM 30.9950 -102.9617 287° West 422 486 40,000  Level Albuquerque Center
Tue 08:30:07 AM 31.0289 -103.0956 286° West 426 490 40,000  Level Albuquerque Center
Tue 08:31:08 AM 31.0644 -103.2275 287° West 427 491 40,000  Level Albuquerque Center
Tue 08:32:08 AM 31.0994 -103.3606 287° West 428 493 40,000  Level Albuquerque Center
Tue 08:33:09 AM 31.1331 -103.4922 287° West 424 488 40,000  Level Albuquerque Center
Tue 08:34:09 AM 31.1661 -103.6247 286° West 425 489 40,000  Level Albuquerque Center
Tue 08:35:10 AM 31.1992 -103.7567 286° West 424 488 40,000  Level Albuquerque Center
Tue 08:36:10 AM 31.2356 -103.8994 287° West 426 490 40,000  Level Albuquerque Center
Tue 08:37:11 AM 31.2700 -104.0317 287° West 427 491 40,000  Level Albuquerque Center
Tue 08:38:11 AM 31.3022 -104.1642 286° West 426 490 40,000  Level Albuquerque Center
Tue 08:39:12 AM 31.3364 -104.2961 287° West 426 490 40,000  Level Albuquerque Center
Tue 08:40:12 AM 31.3683 -104.4256 286° West 421 484 40,000  Level Albuquerque Center
Tue 08:41:13 AM 31.4019 -104.5550 287° West 418 481 40,000  Level Albuquerque Center
Tue 08:42:13 AM 31.4325 -104.6839 286° West 415 478 40,000  Level Albuquerque Center
Tue 08:43:14 AM 31.4658 -104.8133 287° West 416 479 40,000  Level Albuquerque Center
Tue 08:44:15 AM 31.5033 -104.9694 286° West 418 481 40,000  Level Albuquerque Center
Tue 08:45:15 AM 31.5350 -105.1003 286° West 420 483 40,000  Level Albuquerque Center
Tue 08:46:16 AM 31.5675 -105.2306 286° West 420 483 40,000  Level Albuquerque Center
Tue 08:47:16 AM 31.5989 -105.3664 285° West 435 501 40,000  Level Albuquerque Center
Tue 08:48:17 AM 31.6300 -105.4972 286° West 422 486 40,000  Level Albuquerque Center
Tue 08:49:17 AM 31.6614 -105.6281 286° West 420 483 40,000  Level Albuquerque Center
Tue 08:50:18 AM 31.6919 -105.7617 285° West 424 488 40,000  Level Albuquerque Center
Tue 08:51:18 AM 31.7242 -105.8939 286° West 424 488 40,000  Level Albuquerque Center
Tue 08:52:19 AM 31.7556 -106.0278 285° West 425 489 40,000  Level Albuquerque Center
Tue 08:53:19 AM 31.7872 -106.1597 286° West 422 486 40,000  Level Albuquerque Center
Tue 08:54:20 AM 31.8189 -106.2914 286° West 421 484 40,000  Level Albuquerque Center
Tue 08:55:20 AM 31.8292 -106.4292 275° West 421 484 40,000  Level Albuquerque Center
Tue 08:56:21 AM 31.8389 -106.5886 274° West 420 483 40,000  Level Albuquerque Center
Tue 08:57:22 AM 31.8478 -106.6964 276° West 415 478 40,000  Level Albuquerque Center
Tue 08:58:22 AM 31.8583 -106.8306 275° West 412 474 40,000  Level Albuquerque Center
Tue 08:59:23 AM 31.8694 -106.9908 275° West 409 471 40,000  Level Albuquerque Center
Tue 09:00:23 AM 31.8783 -107.1222 275° West 403 464 40,000  Level Albuquerque Center
Tue 09:01:24 AM 31.8878 -107.2522 275° West 400 460 40,000  Level Albuquerque Center
Tue 09:02:24 AM 31.8961 -107.3814 274° West 397 457 40,000  Level Albuquerque Center
Tue 09:03:25 AM 31.9039 -107.5136 274° West 398 458 40,000  Level Albuquerque Center
Tue 09:04:26 AM 31.9131 -107.6456 275° West 402 463 40,000  Level Albuquerque Center
Tue 09:05:26 AM 31.9222 -107.7736 275° West 397 457 40,000  Level Albuquerque Center
Tue 09:06:27 AM 31.9517 -107.9031 285° West 406 467 40,000  Level Albuquerque Center
Tue 09:07:27 AM 31.9819 -108.0306 286° West 405 466 40,000  Level Albuquerque Center
Tue 09:08:28 AM 32.0114 -108.1522 286° West 405 466 40,000  Level Albuquerque Center
Tue 09:09:29 AM 32.0406 -108.2789 285° West 404 465 40,000  Level Albuquerque Center
Tue 09:10:29 AM 32.0706 -108.4072 285° West 407 468 40,000  Level Albuquerque Center
Tue 09:11:30 AM 32.1008 -108.5342 286° West 407 468 40,000  Level Albuquerque Center
Tue 09:12:31 AM 32.1303 -108.6639 285° West 409 471 40,000  Level Albuquerque Center
Tue 09:13:32 AM 32.1608 -108.7931 286° West 412 474 40,000  Level Albuquerque Center
Tue 09:14:32 AM 32.1911 -108.9242 285° West 414 476 40,000  Level Albuquerque Center
Tue 09:15:33 AM 32.2272 -109.0825 285° West 417 480 40,000  Level Albuquerque Center
Tue 09:16:34 AM 32.2578 -109.2153 285° West 420 483 40,000  Level Albuquerque Center
Tue 09:17:35 AM 32.2883 -109.3478 285° West 420 483 40,000  Level Albuquerque Center
Tue 09:18:36 AM 32.3211 -109.4806 286° West 422 486 40,000  Level Albuquerque Center
Tue 09:19:36 AM 32.3533 -109.6131 286° West 423 487 40,000  Level Albuquerque Center
Tue 09:20:37 AM 32.3844 -109.7458 286° West 422 486 40,000 -885 Level Albuquerque Center
Tue 09:21:38 AM 32.4189 -109.8792 287° West 425 489 38,200 -2,213 Descending Albuquerque Center
Tue 09:22:39 AM 32.4519 -110.0164 286° West 433 498 35,500 -3,000 Descending Albuquerque Center
Tue 09:23:40 AM 32.4850 -110.1597 285° West 448 516 32,100 -3,074 Descending Albuquerque Center
Tue 09:24:40 AM 32.5197 -110.3028 286° West 455 524 29,300 -2,876 Descending Albuquerque Center
Tue 09:25:41 AM 32.5553 -110.4608 285° West 436 502 26,300 -2,607 Descending Albuquerque Center
Tue 09:26:42 AM 32.5889 -110.5906 287° West 420 483 24,000 -1,131 Descending Albuquerque Center
Tue 09:27:43 AM 32.6467 -110.6994 302° West 398 458 24,000  Level Albuquerque Center
Tue 09:28:44 AM 32.7061 -110.8094 303° West 395 455 24,000  Level Albuquerque Center
Tue 09:29:45 AM 32.7658 -110.9203 303° West 398 458 24,000 -1,041 Level Albuquerque Center
Tue 09:30:45 AM 32.8247 -111.0314 302° West 398 458 21,900 -1,983 Descending Albuquerque Center
Tue 09:31:46 AM 32.8803 -111.1414 301° West 394 453 20,000 -2,066 Descending Albuquerque Center
Tue 09:32:47 AM 32.9292 -111.2406 300° West 362 417 17,700 -2,164 Descending Albuquerque Center
Tue 09:33:48 AM 32.9733 -111.3400 298° West 343 395 15,600 -1,672 Descending Albuquerque Center
Tue 09:34:49 AM 33.0169 -111.4344 299° West 327 376 14,300 -1,377 Descending Albuquerque Center
Tue 09:35:50 AM 33.0628 -111.5197 303° West 308 354 12,800 -1,131 Descending Albuquerque Center
Tue 09:36:51 AM 33.1053 -111.6056 301° West 301 346 12,000 -492 Descending Albuquerque Center
Tue 09:37:52 AM 33.1486 -111.6900 302° West 298 343 11,800 -934 Descending Albuquerque Center
Tue 09:38:53 AM 33.1903 -111.7736 301° West 293 337 10,100 -1,131 Descending Albuquerque Center
Tue 09:39:54 AM 33.2400 -111.8703 302° West 285 328 9,500 -541 Descending Albuquerque Center
Tue 09:40:55 AM 33.2769 -111.9442 301° West 262 302 9,000 -738 Descending Albuquerque Center
Tue 09:41:56 AM 33.3108 -112.0103 302° West 237 273 8,000 -1,033 Descending Albuquerque Center
Tue 09:42:57 AM 33.3428 -112.0767 300° West 231 266 6,900 -976 Descending Albuquerque Center
Tue 09:43:59 AM 33.3431 -112.1489 270° West 217 250 6,000 -878 Descending Albuquerque Center
Tue 09:45:00 AM 33.3889 -112.1808 330° Northwest 222 255 5,100 -934 Descending Albuquerque Center
Tue 09:46:01 AM 33.4247 -112.1519 34° Northeast 169 194 4,100 -1,279 Descending Albuquerque Center
Tue 09:47:02 AM 33.4314 -112.1050 80° East 148 170 2,500 -1,180 Descending Albuquerque Center
Tue 09:48:03 AM 33.4317 -112.0617 90° East 133 153 1,700 -689 Descending Albuquerque Center
Tue 09:49:04 AM 33.4308 -112.0194 91° East 127 146 1,100 -590 Descending Albuquerque Center

Login

Don't have an account? Register now (free) for customized features, flight alerts, and more!